Grafton, New York
Current Conditions -  °F | °C
As of 1:54 PM on Saturday 25 Oct 2014 (Local Time) from KDDH Reporting Station
Broken Clouds Broken Clouds  
Wind Chill: 56°   Ceiling: 2600
Heat Index: 56°   Visibility: 10mi
Dew Point: 45°   Wind: 5mph
Humidity: 67%   Direction: NA
Pressure: 29.68"   Gusts: NA
Location:  42.77°N, 73.45°W
Report Text: KDDH 251754Z AUTO VRB04KT 10SM BKN026 13/07 A2968 RMK AO2 SLP052 T01330072 10139 20061 58036
Loading
Personal Weather Stations






























Interactive Weather Map
Tropical Storm Tracking
New forecast layout! Learn more

10-Day Weather Forecast

Advertisements
Track Severe Weather on mobile